LNG Imo — ZCDT6 — position and weather

sailwx.info

Track history (hours):
 
Tides and Currents Weather Stations Pressure Air Temp Water Temp Dewpoint Dewpoint Depression Visibility Wind Speed Wind Dir Waves Ship Positions

LNG Imo

Last reported at 2016-Aug-29 02:07 UTC. Time now 2016-Aug-31 07:59 UTC.
Position N 37°22' E 024°14'.

Length 288 m; draft 11.1 m.

Type: Ship (hazmat cat D). MMSI: 310565000.

Date/timePositionNaut miles runAvg speedWind from/ knotsBaromVisibWave heightAir tempDewpointWater temp
2016-Aug-29 02:07N 37°22' E 024°14'915.6
2016-Aug-29 01:33N 37°14' E 024°10'1616.3
2016-Aug-29 00:33N 36°58' E 024°06'1615.7
2016-Aug-28 23:33N 36°44' E 023°58'1716.5
2016-Aug-28 22:33N 36°32' E 023°44'36116.2
2016-Aug-28 00:19N 36°19' E 016°16'1816.7
2016-Aug-27 23:15N 36°20' E 015°54'1316.7
2016-Aug-27 22:30N 36°21' E 015°38'1616.7
2016-Aug-27 21:33N 36°21' E 015°19'1616.6
2016-Aug-27 20:34N 36°23' E 014°58'1716.6
2016-Aug-27 19:33N 36°23' E 014°38'1716.7
2016-Aug-27 18:33N 36°24' E 014°17'1716.9
2016-Aug-27 17:33N 36°25' E 013°56'1716.8
2016-Aug-27 16:33N 36°26' E 013°35'1716.6
2016-Aug-27 15:33N 36°32' E 013°16'1716.6
2016-Aug-27 14:33N 36°39' E 012°57'1716.7
2016-Aug-27 13:33N 36°45' E 012°38'1716.7
2016-Aug-27 12:33N 36°52' E 012°19'1717.3
2016-Aug-27 11:33N 36°60' E 011°60'1817.6
2016-Aug-27 10:34N 37°09' E 011°41'3616.7
2016-Aug-27 08:26N 37°25' E 011°01'51016.4
2016-Aug-26 01:16N 36°42' E 000°25'1316.0
2016-Aug-26 00:28N 36°41' E 000°09'1815.6
2016-Aug-25 23:18N 36°38' W 000°14'1115.0
2016-Aug-25 22:33N 36°37' W 000°28'22816.3
2016-Aug-25 08:33N 36°00' W 005°07'1717.4
2016-Aug-25 07:33N 35°57' W 005°28'2215.5
2016-Aug-25 06:09N 35°54' W 005°55'12316.0
2016-Aug-24 22:26N 34°32' W 007°48'1517.0
2016-Aug-24 21:34N 34°22' W 007°60'2216.6
2016-Aug-24 20:16N 34°06' W 008°18'1216.6
2016-Aug-24 19:33N 33°57' W 008°27'1716.7
2016-Aug-24 18:34N 33°45' W 008°41'1716.4
2016-Aug-24 17:33N 33°33' W 008°54'1616.3
2016-Aug-24 16:33N 33°21' W 009°07'1816.4
2016-Aug-24 15:26N 33°07' W 009°22'1516.4
2016-Aug-24 14:33N 32°56' W 009°34'1716.6
2016-Aug-24 13:33N 32°44' W 009°47'1816.9
2016-Aug-24 12:31N 32°31' W 010°01'1616.8
2016-Aug-24 11:33N 32°19' W 010°14'5516.7
2016-Aug-24 08:17N 31°36' W 010°54'1417.0
2016-Aug-24 07:29N 31°25' W 011°03'5016.7
2016-Aug-24 04:29N 30°43' W 011°35'6316.0
2016-Aug-24 00:33N 29°50' W 012°15'1615.9
2016-Aug-23 23:33N 29°38' W 012°26'1716.0
2016-Aug-23 22:28N 29°24' W 012°37'1515.9
2016-Aug-23 21:33N 29°11' W 012°46'1615.9
2016-Aug-23 20:32N 28°58' W 012°56'4715.7
2016-Aug-23 17:31N 28°18' W 013°26'2216.3
2016-Aug-23 16:11N 28°00' W 013°40'1016.3
2016-Aug-23 15:33N 27°52' W 013°47'6616.6
2016-Aug-23 11:33N 27°01' W 014°35'1616.5
2016-Aug-23 10:33N 26°48' W 014°46'1616.4
2016-Aug-23 09:33N 26°35' W 014°58'  
Track history (hours):
 
Tides and Currents Weather Stations Pressure Air Temp Water Temp Dewpoint Dewpoint Depression Visibility Wind Speed Wind Dir Waves Ship Positions

LNG Imo

Last reported at 2016-Aug-29 02:07 UTC. Time now 2016-Aug-31 07:59 UTC.
Position N 37°22' E 024°14'.

Length 288 m; draft 11.1 m.

Type: Ship (hazmat cat D). MMSI: 310565000.

Date/timePositionNaut miles runAvg speedWind from/ knotsBaromVisibWave heightAir tempDewpointWater temp
2016-Aug-29 02:07N 37°22' E 024°14'915.6
2016-Aug-29 01:33N 37°14' E 024°10'1616.3
2016-Aug-29 00:33N 36°58' E 024°06'1615.7
2016-Aug-28 23:33N 36°44' E 023°58'1716.5
2016-Aug-28 22:33N 36°32' E 023°44'36116.2
2016-Aug-28 00:19N 36°19' E 016°16'1816.7
2016-Aug-27 23:15N 36°20' E 015°54'1316.7
2016-Aug-27 22:30N 36°21' E 015°38'1616.7
2016-Aug-27 21:33N 36°21' E 015°19'1616.6
2016-Aug-27 20:34N 36°23' E 014°58'1716.6
2016-Aug-27 19:33N 36°23' E 014°38'1716.7
2016-Aug-27 18:33N 36°24' E 014°17'1716.9
2016-Aug-27 17:33N 36°25' E 013°56'1716.8
2016-Aug-27 16:33N 36°26' E 013°35'1716.6
2016-Aug-27 15:33N 36°32' E 013°16'1716.6
2016-Aug-27 14:33N 36°39' E 012°57'1716.7
2016-Aug-27 13:33N 36°45' E 012°38'1716.7
2016-Aug-27 12:33N 36°52' E 012°19'1717.3
2016-Aug-27 11:33N 36°60' E 011°60'1817.6
2016-Aug-27 10:34N 37°09' E 011°41'3616.7
2016-Aug-27 08:26N 37°25' E 011°01'51016.4
2016-Aug-26 01:16N 36°42' E 000°25'1316.0
2016-Aug-26 00:28N 36°41' E 000°09'1815.6
2016-Aug-25 23:18N 36°38' W 000°14'1115.0
2016-Aug-25 22:33N 36°37' W 000°28'22816.3
2016-Aug-25 08:33N 36°00' W 005°07'1717.4
2016-Aug-25 07:33N 35°57' W 005°28'2215.5
2016-Aug-25 06:09N 35°54' W 005°55'12316.0
2016-Aug-24 22:26N 34°32' W 007°48'1517.0
2016-Aug-24 21:34N 34°22' W 007°60'2216.6
2016-Aug-24 20:16N 34°06' W 008°18'1216.6
2016-Aug-24 19:33N 33°57' W 008°27'1716.7
2016-Aug-24 18:34N 33°45' W 008°41'1716.4
2016-Aug-24 17:33N 33°33' W 008°54'1616.3
2016-Aug-24 16:33N 33°21' W 009°07'1816.4
2016-Aug-24 15:26N 33°07' W 009°22'1516.4
2016-Aug-24 14:33N 32°56' W 009°34'1716.6
2016-Aug-24 13:33N 32°44' W 009°47'1816.9
2016-Aug-24 12:31N 32°31' W 010°01'1616.8
2016-Aug-24 11:33N 32°19' W 010°14'5516.7
2016-Aug-24 08:17N 31°36' W 010°54'1417.0
2016-Aug-24 07:29N 31°25' W 011°03'5016.7
2016-Aug-24 04:29N 30°43' W 011°35'6316.0
2016-Aug-24 00:33N 29°50' W 012°15'1615.9
2016-Aug-23 23:33N 29°38' W 012°26'1716.0
2016-Aug-23 22:28N 29°24' W 012°37'1515.9
2016-Aug-23 21:33N 29°11' W 012°46'1615.9
2016-Aug-23 20:32N 28°58' W 012°56'4715.7
2016-Aug-23 17:31N 28°18' W 013°26'2216.3
2016-Aug-23 16:11N 28°00' W 013°40'1016.3
2016-Aug-23 15:33N 27°52' W 013°47'6616.6
2016-Aug-23 11:33N 27°01' W 014°35'1616.5
2016-Aug-23 10:33N 26°48' W 014°46'1616.4
2016-Aug-23 09:33N 26°35' W 014°58'  

Dump ship's entire track history